Time;durP1;ratioP1;P1;durP2;ratioP2;P2;SDS_P1;SDS_P2;PMS_P1;PMS_P2;Temp;Humidity;BMP_temperature;BMP_pressure;BME280_temperature;BME280_humidity;BME280_pressure;Samples;Min_cycle;Max_cycle;Signal;HPM_P1;HPM_P2
2023/08/08 00:01:42;;;;;;;7.50;1.30;;;;;;;13.81;82.95;98143.17;435634;1252;97858;-41
2023/08/08 00:11:50;;;;;;;1.90;1.40;;;;;;;13.62;82.72;98150.20;435800;1251;108991;-40
2023/08/08 00:21:54;;;;;;;5.80;1.90;;;;;;;13.43;82.54;98160.85;435775;1251;110330;-42
2023/08/08 00:32:03;;;;;;;6.80;1.30;;;;;;;13.36;82.56;98170.48;435240;1251;436050;-42
2023/08/08 00:52:17;;;;;;;18.60;2.20;;;;;;;13.25;82.29;98163.84;435572;1254;107428;-41
2023/08/08 01:02:25;;;;;;;5.00;1.50;;;;;;;13.08;82.38;98171.91;435538;1254;97986;-41
2023/08/08 01:12:32;;;;;;;8.40;2.20;;;;;;;13.00;82.28;98179.91;435693;1254;109995;-42
2023/08/08 01:22:46;;;;;;;6.60;1.60;;;;;;;12.96;82.23;98173.20;435611;1254;108454;-42
2023/08/08 01:32:54;;;;;;;5.40;1.60;;;;;;;12.97;82.23;98171.34;435716;1257;97873;-42
2023/08/08 01:43:01;;;;;;;8.40;1.50;;;;;;;13.05;82.22;98171.62;436604;1253;107753;-39
2023/08/08 01:53:09;;;;;;;4.00;2.10;;;;;;;12.86;82.06;98166.09;435462;1253;97909;-41
2023/08/08 02:03:16;;;;;;;9.20;1.80;;;;;;;12.78;82.07;98170.65;435733;1253;110145;-42
2023/08/08 02:13:23;;;;;;;6.20;1.50;;;;;;;12.80;82.32;98164.88;435514;1253;108154;-42
2023/08/08 02:23:30;;;;;;;2.80;1.90;;;;;;;12.81;82.33;98174.45;435843;1253;97849;-42
2023/08/08 02:33:37;;;;;;;3.50;1.70;;;;;;;12.72;82.44;98191.93;435535;1251;109222;-43
2023/08/08 02:43:45;;;;;;;5.40;1.40;;;;;;;12.60;82.50;98193.53;435333;1251;97860;-42
2023/08/08 02:53:50;;;;;;;5.80;1.40;;;;;;;12.53;82.64;98198.12;435410;1253;110368;-41
2023/08/08 03:03:57;;;;;;;4.90;1.30;;;;;;;12.48;82.71;98205.09;435778;1253;106947;-41
2023/08/08 03:14:05;;;;;;;3.70;1.70;;;;;;;12.42;82.90;98215.55;435746;1253;97970;-42
2023/08/08 03:24:12;;;;;;;3.00;1.60;;;;;;;12.35;83.08;98230.16;436124;1251;111687;-40
2023/08/08 03:34:19;;;;;;;7.50;2.00;;;;;;;12.30;83.16;98243.63;436319;1253;108175;-41
2023/08/08 03:44:26;;;;;;;7.10;3.00;;;;;;;12.40;83.07;98249.47;435895;1254;97864;-42
2023/08/08 03:54:34;;;;;;;8.30;1.70;;;;;;;12.56;83.20;98264.42;435557;1253;108582;-41
2023/08/08 04:14:47;;;;;;;4.90;2.90;;;;;;;13.01;83.38;98291.40;435681;1253;109534;-43
2023/08/08 04:24:54;;;;;;;5.50;2.10;;;;;;;13.41;82.93;98301.23;435476;1253;106441;-41
2023/08/08 04:35:02;;;;;;;6.40;2.30;;;;;;;14.34;82.82;98316.23;435428;1251;96597;-41
2023/08/08 04:45:09;;;;;;;4.70;2.30;;;;;;;15.39;82.37;98321.59;435547;1254;110376;-41
2023/08/08 05:05:24;;;;;;;3.00;1.90;;;;;;;16.83;79.63;98358.86;435618;1253;96650;-41
2023/08/08 05:25:36;;;;;;;4.20;2.80;;;;;;;18.07;78.84;98380.49;435667;1250;98544;-41
2023/08/08 05:35:41;;;;;;;6.40;3.10;;;;;;;18.11;76.85;98390.80;435675;1253;96574;-41
2023/08/08 05:45:48;;;;;;;4.70;2.70;;;;;;;17.19;75.91;98398.33;435802;1251;110826;-41
2023/08/08 05:55:56;;;;;;;3.30;1.90;;;;;;;16.97;75.98;98401.04;435614;1261;108199;-42
2023/08/08 06:06:04;;;;;;;4.40;2.50;;;;;;;16.81;75.31;98402.36;435812;1251;97747;-41
2023/08/08 06:16:11;;;;;;;8.60;2.20;;;;;;;17.06;74.93;98406.69;435865;1254;110674;-42
2023/08/08 06:26:20;;;;;;;4.00;1.90;;;;;;;18.48;74.84;98402.73;435727;1253;108384;-41
2023/08/08 06:36:28;;;;;;;3.30;1.70;;;;;;;19.69;73.25;98398.24;435561;1253;97514;-42
2023/08/08 06:46:36;;;;;;;2.40;1.70;;;;;;;20.25;70.53;98396.92;435636;1253;110526;-40
2023/08/08 06:56:42;;;;;;;6.90;1.50;;;;;;;20.38;67.88;98389.16;435605;1251;109438;-42
2023/08/08 07:06:49;;;;;;;6.70;1.60;;;;;;;19.53;66.11;98392.86;435680;1251;96626;-40
2023/08/08 07:16:55;;;;;;;4.00;2.20;;;;;;;18.96;66.82;98389.23;435781;1260;110179;-42
2023/08/08 07:27:00;;;;;;;3.30;2.10;;;;;;;18.78;67.30;98392.87;435677;1253;108285;-41
2023/08/08 07:37:07;;;;;;;4.40;1.60;;;;;;;18.45;66.74;98388.64;435732;1254;97504;-41
2023/08/08 07:47:15;;;;;;;3.50;1.60;;;;;;;17.90;66.82;98386.05;435566;1263;107447;-41
2023/08/08 07:57:22;;;;;;;5.00;1.70;;;;;;;17.71;66.27;98387.88;435753;1253;97864;-42
2023/08/08 08:07:29;;;;;;;4.90;1.70;;;;;;;17.35;66.65;98389.56;435634;1252;108905;-40
2023/08/08 08:17:37;;;;;;;4.20;1.70;;;;;;;17.70;66.47;98373.55;435478;1251;108538;-41
2023/08/08 08:27:44;;;;;;;4.80;1.60;;;;;;;17.62;65.29;98376.28;435541;1251;96634;-41
2023/08/08 08:37:51;;;;;;;4.80;2.00;;;;;;;17.28;65.43;98380.04;435538;1250;110740;-41
2023/08/08 08:48:00;;;;;;;4.30;2.30;;;;;;;17.49;65.78;98369.98;435612;1253;107354;-40
2023/08/08 08:58:04;;;;;;;3.90;1.80;;;;;;;17.17;66.18;98372.00;435651;1253;97175;-40
2023/08/08 09:18:17;;;;;;;4.20;1.20;;;;;;;19.30;66.10;98353.33;435624;1251;106834;-42
2023/08/08 09:28:24;;;;;;;4.40;1.40;;;;;;;19.33;64.32;98352.83;435805;1253;97314;-42
2023/08/08 09:38:30;;;;;;;2.80;1.30;;;;;;;19.77;64.15;98344.78;435745;1253;111060;-40
2023/08/08 09:48:35;;;;;;;1.70;1.30;;;;;;;19.89;62.32;98352.41;435714;1251;106793;-41
2023/08/08 09:58:44;;;;;;;1.90;1.40;;;;;;;20.38;59.90;98346.30;435639;1251;97784;-43
2023/08/08 10:08:52;;;;;;;3.50;1.50;;;;;;;21.12;59.04;98339.94;435701;1253;110002;-42
2023/08/08 10:29:04;;;;;;;1.50;0.90;;;;;;;21.46;55.86;98336.18;435840;1251;97861;-39
2023/08/08 10:39:12;;;;;;;2.10;1.00;;;;;;;20.92;55.97;98338.04;435864;1254;97871;-41
2023/08/08 10:49:19;;;;;;;1.00;0.80;;;;;;;21.16;55.09;98342.38;435920;1254;106616;-42
2023/08/08 11:19:40;;;;;;;1.20;1.00;;;;;;;21.67;52.22;98340.97;435862;1251;108871;-40
2023/08/08 11:29:52;;;;;;;0.80;0.80;;;;;;;21.90;52.07;98349.89;435675;1253;97726;-42
2023/08/08 11:40:00;;;;;;;1.50;1.00;;;;;;;21.22;51.70;98360.52;435715;1253;111343;-41
2023/08/08 11:50:10;;;;;;;0.60;0.60;;;;;;;21.34;51.93;98361.42;435697;1250;107699;-42
2023/08/08 12:00:15;;;;;;;2.60;0.90;;;;;;;21.43;51.01;98362.07;435688;1253;97584;-46
2023/08/08 12:10:20;;;;;;;2.80;0.90;;;;;;;21.33;49.74;98360.80;435756;1251;110089;-42
2023/08/08 12:30:36;;;;;;;1.30;0.90;;;;;;;21.11;48.09;98364.61;435384;1250;325175;-41
2023/08/08 12:40:44;;;;;;;3.90;1.30;;;;;;;21.07;48.50;98355.39;436167;1254;110839;-41
2023/08/08 12:50:51;;;;;;;1.30;1.20;;;;;;;20.44;49.08;98359.34;435753;1254;108114;-41
2023/08/08 13:00:58;;;;;;;1.20;1.10;;;;;;;19.96;49.25;98368.69;435700;1253;97862;-42
2023/08/08 13:11:05;;;;;;;3.30;1.10;;;;;;;20.00;50.09;98373.94;435772;1253;109569;-41
2023/08/08 13:21:13;;;;;;;1.20;0.80;;;;;;;20.43;50.19;98371.49;435795;1253;108202;-41
2023/08/08 13:31:20;;;;;;;2.00;1.00;;;;;;;20.49;49.99;98371.50;435726;1253;97903;-41
2023/08/08 13:41:27;;;;;;;1.50;1.10;;;;;;;20.35;50.33;98374.77;435634;1251;110264;-43
2023/08/08 13:51:34;;;;;;;2.60;1.40;;;;;;;20.08;50.34;98378.50;435592;1254;108920;-41
2023/08/08 14:01:43;;;;;;;2.30;1.20;;;;;;;20.37;50.47;98378.77;436017;1251;97838;-41
2023/08/08 14:11:50;;;;;;;1.80;1.30;;;;;;;20.30;50.27;98367.39;436139;1251;110549;-41
2023/08/08 14:21:59;;;;;;;1.80;1.10;;;;;;;20.31;50.66;98373.98;436101;1251;108369;-42
2023/08/08 14:32:06;;;;;;;1.40;1.20;;;;;;;20.37;50.96;98371.08;436036;1251;97858;-42
2023/08/08 14:42:13;;;;;;;7.40;1.50;;;;;;;20.11;50.21;98374.20;435960;1254;110620;-42
2023/08/08 14:52:19;;;;;;;1.30;1.00;;;;;;;19.90;50.24;98379.33;435831;1249;108364;-42
2023/08/08 15:02:26;;;;;;;1.50;1.20;;;;;;;19.94;51.05;98381.77;435895;1251;118452;-41
2023/08/08 15:12:33;;;;;;;3.90;1.20;;;;;;;20.28;51.40;98377.09;435797;1253;109665;-42
2023/08/08 15:22:40;;;;;;;3.30;1.40;;;;;;;20.34;51.43;98373.81;435905;1251;107884;-43
2023/08/08 15:32:47;;;;;;;2.40;1.20;;;;;;;20.21;51.08;98369.88;435713;1251;97881;-41
2023/08/08 15:42:55;;;;;;;4.90;1.30;;;;;;;20.12;51.38;98361.45;435657;1250;111032;-43
2023/08/08 15:53:01;;;;;;;4.30;1.70;;;;;;;20.18;51.63;98356.95;435808;1253;107711;-41
2023/08/08 16:13:13;;;;;;;5.20;1.70;;;;;;;19.67;51.72;98359.13;435813;1251;110121;-41
2023/08/08 16:23:18;;;;;;;3.90;1.70;;;;;;;19.60;52.07;98355.38;435632;1253;108713;-42
2023/08/08 16:33:26;;;;;;;4.60;2.10;;;;;;;19.47;52.18;98357.91;435817;1250;97757;-42
2023/08/08 16:43:38;;;;;;;3.70;2.10;;;;;;;19.33;52.56;98358.16;435803;1251;108541;-42
2023/08/08 16:53:45;;;;;;;1.80;1.30;;;;;;;19.22;52.79;98360.66;435747;1249;96628;-41
2023/08/08 17:03:52;;;;;;;6.00;2.10;;;;;;;19.02;53.09;98360.85;435697;1253;109802;-41
2023/08/08 17:14:00;;;;;;;5.10;1.80;;;;;;;18.75;53.40;98369.44;435706;1250;109200;-42
2023/08/08 17:24:05;;;;;;;3.20;1.60;;;;;;;18.43;53.81;98365.82;435466;1253;97931;-42
2023/08/08 17:34:13;;;;;;;2.00;1.80;;;;;;;18.16;54.46;98370.09;435902;1252;109640;-41
2023/08/08 17:44:20;;;;;;;3.10;2.00;;;;;;;17.72;55.15;98375.24;435828;1253;97454;-41
2023/08/08 17:54:28;;;;;;;1.80;1.40;;;;;;;17.36;55.80;98379.70;435703;1254;109468;-42
2023/08/08 18:04:34;;;;;;;2.40;1.80;;;;;;;16.94;56.37;98382.36;435680;1251;108378;-41
2023/08/08 18:14:41;;;;;;;6.50;2.60;;;;;;;16.40;57.31;98392.36;435702;1254;97496;-42
2023/08/08 18:24:48;;;;;;;3.60;2.30;;;;;;;16.00;58.39;98399.48;435847;1251;109376;-42
2023/08/08 18:34:55;;;;;;;3.70;2.70;;;;;;;15.85;59.41;98401.52;435612;1253;107961;-42
2023/08/08 18:45:04;;;;;;;6.30;2.40;;;;;;;15.93;60.14;98408.04;435705;1252;97869;-41
2023/08/08 18:55:09;;;;;;;7.30;2.00;;;;;;;15.83;60.67;98411.14;435877;1249;110616;-42
2023/08/08 19:05:16;;;;;;;13.50;2.50;;;;;;;15.72;61.64;98427.89;435728;1253;96637;-42
2023/08/08 19:15:24;;;;;;;4.80;3.40;;;;;;;15.81;62.46;98454.27;435403;1251;96999;-43
2023/08/08 19:25:30;;;;;;;2.00;1.80;;;;;;;15.49;63.12;98431.17;435645;1253;110861;-41
2023/08/08 19:35:36;;;;;;;6.50;1.60;;;;;;;15.18;63.80;98422.98;435541;1263;109364;-43
2023/08/08 19:45:43;;;;;;;1.80;1.40;;;;;;;14.62;64.56;98422.61;435688;1251;96654;-42
2023/08/08 19:55:49;;;;;;;1.60;1.50;;;;;;;13.99;65.80;98416.91;435783;1251;108729;-41
2023/08/08 20:05:56;;;;;;;2.30;1.50;;;;;;;13.60;66.83;98409.14;435581;1253;96818;-41
2023/08/08 20:16:02;;;;;;;4.60;2.30;;;;;;;13.45;67.61;98402.49;435612;1251;110496;-41
2023/08/08 20:26:10;;;;;;;4.40;2.50;;;;;;;13.31;68.65;98388.58;435475;1251;107204;-42
2023/08/08 20:36:17;;;;;;;7.30;3.00;;;;;;;13.21;70.26;98377.59;435616;1254;97922;-42
2023/08/08 20:46:25;;;;;;;7.20;2.90;;;;;;;13.05;71.56;98367.13;435617;1253;107393;-41
2023/08/08 20:56:33;;;;;;;5.00;3.00;;;;;;;13.03;72.73;98362.55;435680;1250;97454;-42
2023/08/08 21:06:42;;;;;;;3.90;2.40;;;;;;;12.97;73.56;98357.80;435825;1253;109133;-42
2023/08/08 21:16:49;;;;;;;4.40;2.40;;;;;;;12.93;73.90;98359.52;435532;1253;107583;-42
2023/08/08 21:26:57;;;;;;;5.20;2.40;;;;;;;13.12;74.17;98372.62;435503;1253;97211;-41
2023/08/08 21:37:04;;;;;;;4.20;2.80;;;;;;;13.28;73.73;98366.83;435613;1251;108309;-43
2023/08/08 21:47:09;;;;;;;5.20;3.10;;;;;;;13.24;74.03;98361.27;435353;1253;97980;-41
2023/08/08 21:57:15;;;;;;;4.90;3.50;;;;;;;13.07;74.17;98355.36;435566;1251;110434;-42
2023/08/08 22:07:22;;;;;;;5.10;3.70;;;;;;;12.86;74.57;98356.75;435503;1249;107115;-43
2023/08/08 22:17:30;;;;;;;6.70;3.20;;;;;;;12.83;75.13;98379.02;435668;1254;97951;-41
2023/08/08 22:27:35;;;;;;;5.70;3.80;;;;;;;13.03;75.64;98401.29;435484;1254;108011;-42
2023/08/08 22:37:41;;;;;;;7.60;3.70;;;;;;;13.20;75.58;98419.84;435661;1253;97244;-42
2023/08/08 22:47:47;;;;;;;4.90;3.00;;;;;;;13.34;75.90;98416.80;435456;1253;109319;-41
2023/08/08 22:57:54;;;;;;;6.00;3.50;;;;;;;13.40;75.82;98408.45;435547;1253;108479;-41
2023/08/08 23:08:04;;;;;;;6.90;2.70;;;;;;;13.42;76.18;98414.46;435577;1251;97453;-41
2023/08/08 23:18:11;;;;;;;6.80;3.60;;;;;;;13.42;76.16;98413.84;435495;1253;107395;-41
2023/08/08 23:28:18;;;;;;;5.50;4.10;;;;;;;13.40;76.39;98418.01;435510;1253;98031;-41
2023/08/08 23:38:24;;;;;;;5.90;3.30;;;;;;;13.51;76.63;98423.32;435454;1253;111546;-41
2023/08/08 23:58:36;;;;;;;8.30;4.60;;;;;;;13.68;77.19;98415.41;435857;1251;97858;-42
